sensor_id;sensor_type;location;lat;lon;timestamp;P1;durP1;ratioP1;P2;durP2;ratioP2
54823;SDS011;40724;53.196;5.980;2023-06-26T00:01:23;8.75;;;6.47;;
54823;SDS011;40724;53.196;5.980;2023-06-26T00:03:49;8.32;;;7.50;;
54823;SDS011;40724;53.196;5.980;2023-06-26T00:06:16;10.45;;;6.97;;
54823;SDS011;40724;53.196;5.980;2023-06-26T00:08:42;9.57;;;6.95;;
54823;SDS011;40724;53.196;5.980;2023-06-26T00:11:08;7.68;;;6.45;;
54823;SDS011;40724;53.196;5.980;2023-06-26T00:13:34;11.70;;;7.50;;
54823;SDS011;40724;53.196;5.980;2023-06-26T00:16:00;8.98;;;7.07;;
54823;SDS011;40724;53.196;5.980;2023-06-26T00:18:28;9.27;;;7.55;;
54823;SDS011;40724;53.196;5.980;2023-06-26T00:20:54;9.07;;;6.53;;
54823;SDS011;40724;53.196;5.980;2023-06-26T00:23:20;8.05;;;6.53;;
54823;SDS011;40724;53.196;5.980;2023-06-26T00:25:46;8.05;;;6.78;;
54823;SDS011;40724;53.196;5.980;2023-06-26T00:28:12;10.80;;;6.45;;
54823;SDS011;40724;53.196;5.980;2023-06-26T00:30:38;9.30;;;7.00;;
54823;SDS011;40724;53.196;5.980;2023-06-26T00:33:04;8.43;;;7.47;;
54823;SDS011;40724;53.196;5.980;2023-06-26T00:35:29;7.90;;;7.05;;
54823;SDS011;40724;53.196;5.980;2023-06-26T00:37:56;9.35;;;7.28;;
54823;SDS011;40724;53.196;5.980;2023-06-26T00:40:22;8.15;;;7.05;;
54823;SDS011;40724;53.196;5.980;2023-06-26T00:42:48;7.60;;;6.40;;
54823;SDS011;40724;53.196;5.980;2023-06-26T00:45:14;9.63;;;6.95;;
54823;SDS011;40724;53.196;5.980;2023-06-26T00:47:40;7.68;;;6.88;;
54823;SDS011;40724;53.196;5.980;2023-06-26T00:50:06;8.25;;;7.43;;
54823;SDS011;40724;53.196;5.980;2023-06-26T00:52:32;8.35;;;6.82;;
54823;SDS011;40724;53.196;5.980;2023-06-26T00:54:58;8.90;;;7.35;;
54823;SDS011;40724;53.196;5.980;2023-06-26T00:57:24;14.18;;;8.02;;
54823;SDS011;40724;53.196;5.980;2023-06-26T00:59:50;11.75;;;6.75;;
54823;SDS011;40724;53.196;5.980;2023-06-26T01:02:16;9.32;;;7.20;;
54823;SDS011;40724;53.196;5.980;2023-06-26T01:04:49;8.25;;;6.75;;
54823;SDS011;40724;53.196;5.980;2023-06-26T01:07:16;8.65;;;7.15;;
54823;SDS011;40724;53.196;5.980;2023-06-26T01:09:44;10.05;;;7.18;;
54823;SDS011;40724;53.196;5.980;2023-06-26T01:12:10;8.10;;;6.78;;
54823;SDS011;40724;53.196;5.980;2023-06-26T01:14:37;9.00;;;7.18;;
54823;SDS011;40724;53.196;5.980;2023-06-26T01:17:03;9.43;;;7.03;;
54823;SDS011;40724;53.196;5.980;2023-06-26T01:19:30;9.35;;;7.50;;
54823;SDS011;40724;53.196;5.980;2023-06-26T01:24:34;9.48;;;7.50;;
54823;SDS011;40724;53.196;5.980;2023-06-26T01:27:02;9.30;;;6.75;;
54823;SDS011;40724;53.196;5.980;2023-06-26T01:29:30;16.40;;;8.25;;
54823;SDS011;40724;53.196;5.980;2023-06-26T01:31:57;9.70;;;7.57;;
54823;SDS011;40724;53.196;5.980;2023-06-26T01:34:23;8.82;;;7.45;;
54823;SDS011;40724;53.196;5.980;2023-06-26T01:36:49;9.98;;;7.20;;
54823;SDS011;40724;53.196;5.980;2023-06-26T01:39:17;8.40;;;7.50;;
54823;SDS011;40724;53.196;5.980;2023-06-26T01:41:43;12.77;;;8.20;;
54823;SDS011;40724;53.196;5.980;2023-06-26T01:46:39;9.88;;;8.35;;
54823;SDS011;40724;53.196;5.980;2023-06-26T01:49:08;9.25;;;8.18;;
54823;SDS011;40724;53.196;5.980;2023-06-26T01:51:38;12.15;;;8.23;;
54823;SDS011;40724;53.196;5.980;2023-06-26T01:54:06;8.95;;;8.02;;
54823;SDS011;40724;53.196;5.980;2023-06-26T01:56:33;9.23;;;7.97;;
54823;SDS011;40724;53.196;5.980;2023-06-26T01:59:00;10.50;;;7.53;;
54823;SDS011;40724;53.196;5.980;2023-06-26T02:01:27;9.63;;;8.35;;
54823;SDS011;40724;53.196;5.980;2023-06-26T02:03:54;9.75;;;8.40;;
54823;SDS011;40724;53.196;5.980;2023-06-26T02:06:20;9.60;;;8.70;;
54823;SDS011;40724;53.196;5.980;2023-06-26T02:08:46;13.88;;;9.63;;
54823;SDS011;40724;53.196;5.980;2023-06-26T02:11:12;9.48;;;8.35;;
54823;SDS011;40724;53.196;5.980;2023-06-26T02:13:38;9.80;;;7.60;;
54823;SDS011;40724;53.196;5.980;2023-06-26T02:16:04;10.90;;;8.48;;
54823;SDS011;40724;53.196;5.980;2023-06-26T02:18:30;10.80;;;8.55;;
54823;SDS011;40724;53.196;5.980;2023-06-26T02:20:56;10.60;;;8.10;;
54823;SDS011;40724;53.196;5.980;2023-06-26T02:23:22;9.40;;;8.45;;
54823;SDS011;40724;53.196;5.980;2023-06-26T02:25:48;10.68;;;8.07;;
54823;SDS011;40724;53.196;5.980;2023-06-26T02:28:15;10.77;;;8.43;;
54823;SDS011;40724;53.196;5.980;2023-06-26T02:30:41;10.60;;;8.55;;
54823;SDS011;40724;53.196;5.980;2023-06-26T02:33:07;8.95;;;7.95;;
54823;SDS011;40724;53.196;5.980;2023-06-26T02:35:33;11.80;;;8.55;;
54823;SDS011;40724;53.196;5.980;2023-06-26T02:38:00;8.75;;;7.90;;
54823;SDS011;40724;53.196;5.980;2023-06-26T02:40:26;10.63;;;7.78;;
54823;SDS011;40724;53.196;5.980;2023-06-26T02:42:52;10.85;;;8.63;;
54823;SDS011;40724;53.196;5.980;2023-06-26T02:45:18;10.18;;;8.13;;
54823;SDS011;40724;53.196;5.980;2023-06-26T02:47:44;10.18;;;8.73;;
54823;SDS011;40724;53.196;5.980;2023-06-26T02:50:10;10.90;;;8.95;;
54823;SDS011;40724;53.196;5.980;2023-06-26T02:52:36;9.63;;;8.50;;
54823;SDS011;40724;53.196;5.980;2023-06-26T02:55:03;10.52;;;9.20;;
54823;SDS011;40724;53.196;5.980;2023-06-26T02:57:30;11.90;;;9.73;;
54823;SDS011;40724;53.196;5.980;2023-06-26T02:59:56;8.45;;;7.60;;
54823;SDS011;40724;53.196;5.980;2023-06-26T03:02:22;11.55;;;8.20;;
54823;SDS011;40724;53.196;5.980;2023-06-26T03:04:48;10.40;;;8.65;;
54823;SDS011;40724;53.196;5.980;2023-06-26T03:07:15;10.65;;;7.95;;
54823;SDS011;40724;53.196;5.980;2023-06-26T03:09:41;10.82;;;7.47;;
54823;SDS011;40724;53.196;5.980;2023-06-26T03:12:07;12.15;;;9.05;;
54823;SDS011;40724;53.196;5.980;2023-06-26T03:14:34;9.07;;;7.38;;
54823;SDS011;40724;53.196;5.980;2023-06-26T03:17:00;10.80;;;8.55;;
54823;SDS011;40724;53.196;5.980;2023-06-26T03:19:29;12.30;;;8.63;;
54823;SDS011;40724;53.196;5.980;2023-06-26T03:21:55;10.73;;;8.00;;
54823;SDS011;40724;53.196;5.980;2023-06-26T03:24:21;10.98;;;7.65;;
54823;SDS011;40724;53.196;5.980;2023-06-26T03:26:47;13.07;;;8.27;;
54823;SDS011;40724;53.196;5.980;2023-06-26T03:29:13;11.25;;;8.32;;
54823;SDS011;40724;53.196;5.980;2023-06-26T03:31:40;11.25;;;8.18;;
54823;SDS011;40724;53.196;5.980;2023-06-26T03:34:06;10.70;;;7.97;;
54823;SDS011;40724;53.196;5.980;2023-06-26T03:36:31;11.27;;;7.80;;
54823;SDS011;40724;53.196;5.980;2023-06-26T03:38:57;9.43;;;7.07;;
54823;SDS011;40724;53.196;5.980;2023-06-26T03:41:23;10.43;;;6.95;;
54823;SDS011;40724;53.196;5.980;2023-06-26T03:43:49;12.23;;;8.30;;
54823;SDS011;40724;53.196;5.980;2023-06-26T03:46:15;10.90;;;8.00;;
54823;SDS011;40724;53.196;5.980;2023-06-26T03:48:41;8.10;;;7.30;;
54823;SDS011;40724;53.196;5.980;2023-06-26T03:51:06;11.45;;;7.72;;
54823;SDS011;40724;53.196;5.980;2023-06-26T03:53:33;11.48;;;7.28;;
54823;SDS011;40724;53.196;5.980;2023-06-26T03:55:59;15.63;;;9.07;;
54823;SDS011;40724;53.196;5.980;2023-06-26T03:58:25;12.55;;;7.53;;
54823;SDS011;40724;53.196;5.980;2023-06-26T04:00:51;13.90;;;8.80;;
54823;SDS011;40724;53.196;5.980;2023-06-26T04:03:18;9.70;;;6.82;;
54823;SDS011;40724;53.196;5.980;2023-06-26T04:05:44;15.82;;;9.32;;
54823;SDS011;40724;53.196;5.980;2023-06-26T04:08:10;14.15;;;9.68;;
54823;SDS011;40724;53.196;5.980;2023-06-26T04:10:36;11.02;;;7.30;;
54823;SDS011;40724;53.196;5.980;2023-06-26T04:13:02;9.52;;;6.80;;
54823;SDS011;40724;53.196;5.980;2023-06-26T04:15:28;13.10;;;8.32;;
54823;SDS011;40724;53.196;5.980;2023-06-26T04:17:54;13.30;;;8.05;;
54823;SDS011;40724;53.196;5.980;2023-06-26T04:20:20;11.55;;;8.07;;
54823;SDS011;40724;53.196;5.980;2023-06-26T04:22:47;15.32;;;9.60;;
54823;SDS011;40724;53.196;5.980;2023-06-26T04:25:13;13.60;;;8.68;;
54823;SDS011;40724;53.196;5.980;2023-06-26T04:27:39;14.10;;;8.43;;
54823;SDS011;40724;53.196;5.980;2023-06-26T04:30:05;16.13;;;8.90;;
54823;SDS011;40724;53.196;5.980;2023-06-26T04:32:31;14.40;;;7.90;;
54823;SDS011;40724;53.196;5.980;2023-06-26T04:34:58;12.38;;;8.13;;
54823;SDS011;40724;53.196;5.980;2023-06-26T04:37:25;13.65;;;7.82;;
54823;SDS011;40724;53.196;5.980;2023-06-26T04:39:52;12.55;;;7.05;;
54823;SDS011;40724;53.196;5.980;2023-06-26T04:42:18;12.00;;;7.45;;
54823;SDS011;40724;53.196;5.980;2023-06-26T04:44:46;10.73;;;7.05;;
54823;SDS011;40724;53.196;5.980;2023-06-26T04:47:13;11.95;;;6.10;;
54823;SDS011;40724;53.196;5.980;2023-06-26T04:49:40;22.50;;;6.90;;
54823;SDS011;40724;53.196;5.980;2023-06-26T04:52:11;11.75;;;6.30;;
54823;SDS011;40724;53.196;5.980;2023-06-26T04:54:38;13.30;;;6.88;;
54823;SDS011;40724;53.196;5.980;2023-06-26T04:57:05;12.15;;;5.47;;
54823;SDS011;40724;53.196;5.980;2023-06-26T04:59:31;13.23;;;5.57;;
54823;SDS011;40724;53.196;5.980;2023-06-26T05:01:57;9.52;;;5.18;;
54823;SDS011;40724;53.196;5.980;2023-06-26T05:04:23;12.63;;;5.82;;
54823;SDS011;40724;53.196;5.980;2023-06-26T05:06:49;8.85;;;4.88;;
54823;SDS011;40724;53.196;5.980;2023-06-26T05:09:16;9.80;;;5.25;;
54823;SDS011;40724;53.196;5.980;2023-06-26T05:11:42;11.05;;;4.13;;
54823;SDS011;40724;53.196;5.980;2023-06-26T05:14:08;12.30;;;5.43;;
54823;SDS011;40724;53.196;5.980;2023-06-26T05:16:34;11.55;;;5.13;;
54823;SDS011;40724;53.196;5.980;2023-06-26T05:19:00;9.82;;;5.45;;
54823;SDS011;40724;53.196;5.980;2023-06-26T05:21:27;8.27;;;5.05;;
54823;SDS011;40724;53.196;5.980;2023-06-26T05:23:54;7.57;;;5.07;;
54823;SDS011;40724;53.196;5.980;2023-06-26T05:26:21;10.20;;;5.28;;
54823;SDS011;40724;53.196;5.980;2023-06-26T05:28:48;8.73;;;4.55;;
54823;SDS011;40724;53.196;5.980;2023-06-26T05:31:15;10.85;;;4.72;;
54823;SDS011;40724;53.196;5.980;2023-06-26T05:33:43;11.30;;;5.13;;
54823;SDS011;40724;53.196;5.980;2023-06-26T05:36:12;21.27;;;5.05;;
54823;SDS011;40724;53.196;5.980;2023-06-26T05:38:39;9.55;;;4.25;;
54823;SDS011;40724;53.196;5.980;2023-06-26T05:41:05;9.98;;;4.40;;
54823;SDS011;40724;53.196;5.980;2023-06-26T05:43:31;6.57;;;3.50;;
54823;SDS011;40724;53.196;5.980;2023-06-26T05:45:57;10.95;;;5.43;;
54823;SDS011;40724;53.196;5.980;2023-06-26T05:48:24;7.25;;;4.45;;
54823;SDS011;40724;53.196;5.980;2023-06-26T05:50:50;7.28;;;3.88;;
54823;SDS011;40724;53.196;5.980;2023-06-26T05:53:16;10.40;;;4.68;;
54823;SDS011;40724;53.196;5.980;2023-06-26T05:55:42;13.13;;;5.03;;
54823;SDS011;40724;53.196;5.980;2023-06-26T05:58:09;11.13;;;3.80;;
54823;SDS011;40724;53.196;5.980;2023-06-26T06:00:36;7.40;;;4.03;;
54823;SDS011;40724;53.196;5.980;2023-06-26T06:03:03;8.57;;;3.97;;
54823;SDS011;40724;53.196;5.980;2023-06-26T06:05:29;17.63;;;4.30;;
54823;SDS011;40724;53.196;5.980;2023-06-26T06:07:55;10.75;;;4.35;;
54823;SDS011;40724;53.196;5.980;2023-06-26T06:10:21;10.43;;;4.22;;
54823;SDS011;40724;53.196;5.980;2023-06-26T06:12:47;5.65;;;3.25;;
54823;SDS011;40724;53.196;5.980;2023-06-26T06:15:13;6.72;;;3.00;;
54823;SDS011;40724;53.196;5.980;2023-06-26T06:17:39;6.45;;;3.58;;
54823;SDS011;40724;53.196;5.980;2023-06-26T06:20:06;11.45;;;3.63;;
54823;SDS011;40724;53.196;5.980;2023-06-26T06:22:32;6.28;;;3.72;;
54823;SDS011;40724;53.196;5.980;2023-06-26T06:24:58;3.95;;;2.50;;
54823;SDS011;40724;53.196;5.980;2023-06-26T06:27:24;8.25;;;2.97;;
54823;SDS011;40724;53.196;5.980;2023-06-26T06:29:50;9.07;;;3.05;;
54823;SDS011;40724;53.196;5.980;2023-06-26T06:32:16;10.07;;;2.83;;
54823;SDS011;40724;53.196;5.980;2023-06-26T06:34:43;5.53;;;2.88;;
54823;SDS011;40724;53.196;5.980;2023-06-26T06:37:09;14.23;;;3.40;;
54823;SDS011;40724;53.196;5.980;2023-06-26T06:39:35;7.07;;;3.25;;
54823;SDS011;40724;53.196;5.980;2023-06-26T06:42:01;7.10;;;2.85;;
54823;SDS011;40724;53.196;5.980;2023-06-26T06:44:27;10.02;;;3.17;;
54823;SDS011;40724;53.196;5.980;2023-06-26T06:46:55;11.82;;;3.70;;
54823;SDS011;40724;53.196;5.980;2023-06-26T06:49:21;10.00;;;4.13;;
54823;SDS011;40724;53.196;5.980;2023-06-26T06:51:48;4.82;;;2.60;;
54823;SDS011;40724;53.196;5.980;2023-06-26T06:54:15;8.43;;;3.25;;
54823;SDS011;40724;53.196;5.980;2023-06-26T06:56:41;8.82;;;2.97;;
54823;SDS011;40724;53.196;5.980;2023-06-26T06:59:07;7.38;;;2.67;;
54823;SDS011;40724;53.196;5.980;2023-06-26T07:01:33;8.10;;;2.60;;
54823;SDS011;40724;53.196;5.980;2023-06-26T07:03:59;5.18;;;2.70;;
54823;SDS011;40724;53.196;5.980;2023-06-26T07:06:25;6.28;;;2.97;;
54823;SDS011;40724;53.196;5.980;2023-06-26T07:08:52;38.20;;;5.13;;
54823;SDS011;40724;53.196;5.980;2023-06-26T07:11:19;6.70;;;3.15;;
54823;SDS011;40724;53.196;5.980;2023-06-26T07:13:45;16.52;;;3.40;;
54823;SDS011;40724;53.196;5.980;2023-06-26T07:16:11;7.32;;;2.40;;
54823;SDS011;40724;53.196;5.980;2023-06-26T07:18:38;8.60;;;2.67;;
54823;SDS011;40724;53.196;5.980;2023-06-26T07:21:04;9.90;;;2.83;;
54823;SDS011;40724;53.196;5.980;2023-06-26T07:23:30;7.93;;;2.33;;
54823;SDS011;40724;53.196;5.980;2023-06-26T07:25:56;5.95;;;2.65;;
54823;SDS011;40724;53.196;5.980;2023-06-26T07:28:22;6.25;;;1.83;;
54823;SDS011;40724;53.196;5.980;2023-06-26T07:30:49;7.38;;;2.05;;
54823;SDS011;40724;53.196;5.980;2023-06-26T07:33:15;4.00;;;2.40;;
54823;SDS011;40724;53.196;5.980;2023-06-26T07:35:41;3.72;;;1.90;;
54823;SDS011;40724;53.196;5.980;2023-06-26T07:38:07;6.18;;;2.50;;
54823;SDS011;40724;53.196;5.980;2023-06-26T07:40:33;9.57;;;2.70;;
54823;SDS011;40724;53.196;5.980;2023-06-26T07:42:59;7.50;;;2.83;;
54823;SDS011;40724;53.196;5.980;2023-06-26T07:45:25;13.48;;;3.42;;
54823;SDS011;40724;53.196;5.980;2023-06-26T07:47:51;5.43;;;2.58;;
54823;SDS011;40724;53.196;5.980;2023-06-26T07:50:18;15.32;;;2.78;;
54823;SDS011;40724;53.196;5.980;2023-06-26T07:52:47;3.40;;;2.13;;
54823;SDS011;40724;53.196;5.980;2023-06-26T07:55:13;6.95;;;2.53;;
54823;SDS011;40724;53.196;5.980;2023-06-26T07:57:39;4.10;;;2.15;;
54823;SDS011;40724;53.196;5.980;2023-06-26T08:00:06;4.43;;;2.30;;
54823;SDS011;40724;53.196;5.980;2023-06-26T08:02:32;4.10;;;2.30;;
54823;SDS011;40724;53.196;5.980;2023-06-26T08:04:58;8.32;;;3.15;;
54823;SDS011;40724;53.196;5.980;2023-06-26T08:07:24;8.77;;;2.47;;
54823;SDS011;40724;53.196;5.980;2023-06-26T08:09:50;4.60;;;2.13;;
54823;SDS011;40724;53.196;5.980;2023-06-26T08:12:17;4.20;;;2.53;;
54823;SDS011;40724;53.196;5.980;2023-06-26T08:14:43;4.70;;;2.58;;
54823;SDS011;40724;53.196;5.980;2023-06-26T08:17:09;5.70;;;2.67;;
54823;SDS011;40724;53.196;5.980;2023-06-26T08:19:35;7.15;;;2.85;;
54823;SDS011;40724;53.196;5.980;2023-06-26T08:22:01;10.07;;;3.05;;
54823;SDS011;40724;53.196;5.980;2023-06-26T08:24:28;7.68;;;2.33;;
54823;SDS011;40724;53.196;5.980;2023-06-26T08:26:54;4.32;;;2.60;;
54823;SDS011;40724;53.196;5.980;2023-06-26T08:29:20;6.75;;;3.00;;
54823;SDS011;40724;53.196;5.980;2023-06-26T08:31:46;6.35;;;2.55;;
54823;SDS011;40724;53.196;5.980;2023-06-26T08:34:12;8.63;;;2.53;;
54823;SDS011;40724;53.196;5.980;2023-06-26T08:36:39;12.90;;;2.97;;
54823;SDS011;40724;53.196;5.980;2023-06-26T08:39:05;8.07;;;2.70;;
54823;SDS011;40724;53.196;5.980;2023-06-26T08:41:33;7.00;;;2.50;;
54823;SDS011;40724;53.196;5.980;2023-06-26T08:43:59;15.55;;;3.08;;
54823;SDS011;40724;53.196;5.980;2023-06-26T08:46:26;8.68;;;3.38;;
54823;SDS011;40724;53.196;5.980;2023-06-26T08:48:55;4.60;;;2.78;;
54823;SDS011;40724;53.196;5.980;2023-06-26T08:51:23;4.53;;;2.25;;
54823;SDS011;40724;53.196;5.980;2023-06-26T08:53:59;5.07;;;2.72;;
54823;SDS011;40724;53.196;5.980;2023-06-26T08:56:32;4.28;;;3.08;;
54823;SDS011;40724;53.196;5.980;2023-06-26T08:58:58;6.38;;;2.70;;
54823;SDS011;40724;53.196;5.980;2023-06-26T09:01:24;8.32;;;3.75;;
54823;SDS011;40724;53.196;5.980;2023-06-26T09:03:51;7.00;;;2.95;;
54823;SDS011;40724;53.196;5.980;2023-06-26T09:06:17;5.97;;;3.05;;
54823;SDS011;40724;53.196;5.980;2023-06-26T09:08:43;6.07;;;3.55;;
54823;SDS011;40724;53.196;5.980;2023-06-26T09:11:09;6.60;;;2.92;;
54823;SDS011;40724;53.196;5.980;2023-06-26T09:13:36;25.25;;;6.45;;
54823;SDS011;40724;53.196;5.980;2023-06-26T09:16:06;8.18;;;3.38;;
54823;SDS011;40724;53.196;5.980;2023-06-26T09:18:33;5.72;;;2.75;;
54823;SDS011;40724;53.196;5.980;2023-06-26T09:20:59;6.35;;;2.92;;
54823;SDS011;40724;53.196;5.980;2023-06-26T09:23:26;9.43;;;3.10;;
54823;SDS011;40724;53.196;5.980;2023-06-26T09:25:52;8.30;;;3.60;;
54823;SDS011;40724;53.196;5.980;2023-06-26T09:28:18;6.38;;;3.80;;
54823;SDS011;40724;53.196;5.980;2023-06-26T09:30:45;6.68;;;3.25;;
54823;SDS011;40724;53.196;5.980;2023-06-26T09:33:17;10.55;;;3.97;;
54823;SDS011;40724;53.196;5.980;2023-06-26T09:35:44;5.50;;;3.00;;
54823;SDS011;40724;53.196;5.980;2023-06-26T09:38:11;6.65;;;3.42;;
54823;SDS011;40724;53.196;5.980;2023-06-26T09:40:38;4.57;;;3.28;;
54823;SDS011;40724;53.196;5.980;2023-06-26T09:43:07;6.88;;;2.88;;
54823;SDS011;40724;53.196;5.980;2023-06-26T09:45:34;6.13;;;3.50;;
54823;SDS011;40724;53.196;5.980;2023-06-26T09:48:03;8.43;;;3.72;;
54823;SDS011;40724;53.196;5.980;2023-06-26T09:50:30;4.82;;;3.28;;
54823;SDS011;40724;53.196;5.980;2023-06-26T09:53:07;4.32;;;3.10;;
54823;SDS011;40724;53.196;5.980;2023-06-26T09:55:34;6.32;;;3.58;;
54823;SDS011;40724;53.196;5.980;2023-06-26T09:58:02;18.42;;;5.25;;
54823;SDS011;40724;53.196;5.980;2023-06-26T10:00:29;17.85;;;4.80;;
54823;SDS011;40724;53.196;5.980;2023-06-26T10:02:55;5.90;;;3.72;;
54823;SDS011;40724;53.196;5.980;2023-06-26T10:05:21;12.68;;;4.05;;
54823;SDS011;40724;53.196;5.980;2023-06-26T10:07:48;9.23;;;3.50;;
54823;SDS011;40724;53.196;5.980;2023-06-26T10:10:14;6.35;;;2.83;;
54823;SDS011;40724;53.196;5.980;2023-06-26T10:12:42;5.95;;;2.63;;
54823;SDS011;40724;53.196;5.980;2023-06-26T10:15:09;6.55;;;2.92;;
54823;SDS011;40724;53.196;5.980;2023-06-26T10:17:39;31.95;;;5.13;;
54823;SDS011;40724;53.196;5.980;2023-06-26T10:20:08;14.80;;;3.83;;
54823;SDS011;40724;53.196;5.980;2023-06-26T10:22:40;10.60;;;2.88;;
54823;SDS011;40724;53.196;5.980;2023-06-26T10:25:07;7.47;;;2.63;;
54823;SDS011;40724;53.196;5.980;2023-06-26T10:27:38;5.82;;;2.63;;
54823;SDS011;40724;53.196;5.980;2023-06-26T10:30:09;7.93;;;2.45;;
54823;SDS011;40724;53.196;5.980;2023-06-26T10:32:37;4.85;;;2.17;;
54823;SDS011;40724;53.196;5.980;2023-06-26T10:35:05;6.78;;;2.35;;
54823;SDS011;40724;53.196;5.980;2023-06-26T10:37:44;131.05;;;20.65;;
54823;SDS011;40724;53.196;5.980;2023-06-26T10:40:11;14.82;;;4.00;;
54823;SDS011;40724;53.196;5.980;2023-06-26T10:42:38;14.82;;;4.00;;
54823;SDS011;40724;53.196;5.980;2023-06-26T10:45:13;6.60;;;2.72;;
54823;SDS011;40724;53.196;5.980;2023-06-26T10:47:39;8.10;;;2.25;;
54823;SDS011;40724;53.196;5.980;2023-06-26T10:50:25;5.30;;;2.50;;
54823;SDS011;40724;53.196;5.980;2023-06-26T10:53:06;4.53;;;2.05;;
54823;SDS011;40724;53.196;5.980;2023-06-26T10:55:33;5.65;;;2.30;;
54823;SDS011;40724;53.196;5.980;2023-06-26T10:58:00;7.55;;;2.28;;
54823;SDS011;40724;53.196;5.980;2023-06-26T11:00:27;7.88;;;2.20;;
54823;SDS011;40724;53.196;5.980;2023-06-26T11:02:53;23.70;;;3.92;;
54823;SDS011;40724;53.196;5.980;2023-06-26T11:05:23;5.75;;;2.20;;
54823;SDS011;40724;53.196;5.980;2023-06-26T11:08:08;6.43;;;2.40;;
54823;SDS011;40724;53.196;5.980;2023-06-26T11:10:51;6.35;;;2.00;;
54823;SDS011;40724;53.196;5.980;2023-06-26T11:13:18;6.43;;;2.03;;
54823;SDS011;40724;53.196;5.980;2023-06-26T11:15:45;8.65;;;2.33;;
54823;SDS011;40724;53.196;5.980;2023-06-26T11:18:12;7.50;;;2.10;;
54823;SDS011;40724;53.196;5.980;2023-06-26T11:20:39;4.07;;;1.73;;
54823;SDS011;40724;53.196;5.980;2023-06-26T11:23:05;7.07;;;2.67;;
54823;SDS011;40724;53.196;5.980;2023-06-26T11:25:35;9.15;;;2.20;;
54823;SDS011;40724;53.196;5.980;2023-06-26T11:28:02;5.32;;;2.13;;
54823;SDS011;40724;53.196;5.980;2023-06-26T11:30:28;18.92;;;3.88;;
54823;SDS011;40724;53.196;5.980;2023-06-26T11:33:02;9.85;;;2.72;;
54823;SDS011;40724;53.196;5.980;2023-06-26T11:35:31;12.55;;;2.72;;
54823;SDS011;40724;53.196;5.980;2023-06-26T11:37:58;4.35;;;2.20;;
54823;SDS011;40724;53.196;5.980;2023-06-26T11:40:26;5.95;;;2.33;;
54823;SDS011;40724;53.196;5.980;2023-06-26T11:42:55;4.88;;;2.28;;
54823;SDS011;40724;53.196;5.980;2023-06-26T11:45:21;11.70;;;2.72;;
54823;SDS011;40724;53.196;5.980;2023-06-26T11:47:48;6.20;;;2.40;;
54823;SDS011;40724;53.196;5.980;2023-06-26T11:50:17;5.75;;;2.38;;
54823;SDS011;40724;53.196;5.980;2023-06-26T11:52:44;7.00;;;2.47;;
54823;SDS011;40724;53.196;5.980;2023-06-26T11:55:10;7.40;;;2.95;;
54823;SDS011;40724;53.196;5.980;2023-06-26T11:57:37;5.07;;;2.13;;
54823;SDS011;40724;53.196;5.980;2023-06-26T12:00:13;7.82;;;2.45;;
54823;SDS011;40724;53.196;5.980;2023-06-26T12:02:39;5.15;;;2.60;;
54823;SDS011;40724;53.196;5.980;2023-06-26T12:05:06;7.40;;;2.72;;
54823;SDS011;40724;53.196;5.980;2023-06-26T12:07:33;4.57;;;2.65;;
54823;SDS011;40724;53.196;5.980;2023-06-26T12:10:00;9.90;;;2.33;;
54823;SDS011;40724;53.196;5.980;2023-06-26T12:12:26;6.15;;;2.55;;
54823;SDS011;40724;53.196;5.980;2023-06-26T12:14:52;6.40;;;2.85;;
54823;SDS011;40724;53.196;5.980;2023-06-26T12:17:21;6.55;;;2.15;;
54823;SDS011;40724;53.196;5.980;2023-06-26T12:19:48;3.97;;;1.90;;
54823;SDS011;40724;53.196;5.980;2023-06-26T12:22:15;11.57;;;2.65;;
54823;SDS011;40724;53.196;5.980;2023-06-26T12:24:42;10.45;;;3.80;;
54823;SDS011;40724;53.196;5.980;2023-06-26T12:27:09;5.57;;;2.17;;
54823;SDS011;40724;53.196;5.980;2023-06-26T12:29:35;9.13;;;2.72;;
54823;SDS011;40724;53.196;5.980;2023-06-26T12:32:02;12.40;;;3.13;;
54823;SDS011;40724;53.196;5.980;2023-06-26T12:34:30;9.18;;;2.38;;
54823;SDS011;40724;53.196;5.980;2023-06-26T12:37:10;5.28;;;1.98;;
54823;SDS011;40724;53.196;5.980;2023-06-26T12:39:45;5.28;;;3.00;;
54823;SDS011;40724;53.196;5.980;2023-06-26T12:42:18;7.32;;;3.65;;
54823;SDS011;40724;53.196;5.980;2023-06-26T12:44:45;7.40;;;3.05;;
54823;SDS011;40724;53.196;5.980;2023-06-26T12:47:11;6.85;;;2.53;;
54823;SDS011;40724;53.196;5.980;2023-06-26T12:49:42;11.10;;;2.25;;
54823;SDS011;40724;53.196;5.980;2023-06-26T12:52:10;9.55;;;2.50;;
54823;SDS011;40724;53.196;5.980;2023-06-26T12:54:38;3.15;;;1.83;;
54823;SDS011;40724;53.196;5.980;2023-06-26T12:57:04;8.02;;;2.15;;
54823;SDS011;40724;53.196;5.980;2023-06-26T12:59:31;4.53;;;2.70;;
54823;SDS011;40724;53.196;5.980;2023-06-26T13:01:58;6.18;;;2.13;;
54823;SDS011;40724;53.196;5.980;2023-06-26T13:04:24;5.28;;;2.47;;
54823;SDS011;40724;53.196;5.980;2023-06-26T13:06:51;6.18;;;2.33;;
54823;SDS011;40724;53.196;5.980;2023-06-26T13:09:19;4.80;;;1.88;;
54823;SDS011;40724;53.196;5.980;2023-06-26T13:11:46;5.47;;;2.30;;
54823;SDS011;40724;53.196;5.980;2023-06-26T13:14:12;6.03;;;2.22;;
54823;SDS011;40724;53.196;5.980;2023-06-26T13:16:38;9.55;;;2.38;;
54823;SDS011;40724;53.196;5.980;2023-06-26T13:19:04;4.68;;;2.10;;
54823;SDS011;40724;53.196;5.980;2023-06-26T13:21:31;15.43;;;3.75;;
54823;SDS011;40724;53.196;5.980;2023-06-26T13:23:57;9.55;;;2.42;;
54823;SDS011;40724;53.196;5.980;2023-06-26T13:26:24;4.85;;;2.20;;
54823;SDS011;40724;53.196;5.980;2023-06-26T13:28:51;7.18;;;2.60;;
54823;SDS011;40724;53.196;5.980;2023-06-26T13:31:18;11.20;;;2.60;;
54823;SDS011;40724;53.196;5.980;2023-06-26T13:33:44;6.93;;;2.60;;
54823;SDS011;40724;53.196;5.980;2023-06-26T13:36:11;5.22;;;2.55;;
54823;SDS011;40724;53.196;5.980;2023-06-26T13:38:37;12.32;;;3.53;;
54823;SDS011;40724;53.196;5.980;2023-06-26T13:41:03;5.85;;;2.00;;
54823;SDS011;40724;53.196;5.980;2023-06-26T13:43:29;8.13;;;3.00;;
54823;SDS011;40724;53.196;5.980;2023-06-26T13:45:56;9.00;;;2.63;;
54823;SDS011;40724;53.196;5.980;2023-06-26T13:48:22;8.95;;;2.35;;
54823;SDS011;40724;53.196;5.980;2023-06-26T13:50:51;5.07;;;2.03;;
54823;SDS011;40724;53.196;5.980;2023-06-26T13:53:18;4.90;;;1.98;;
54823;SDS011;40724;53.196;5.980;2023-06-26T13:55:44;8.90;;;2.65;;
54823;SDS011;40724;53.196;5.980;2023-06-26T13:58:10;5.22;;;1.88;;
54823;SDS011;40724;53.196;5.980;2023-06-26T14:00:38;9.18;;;2.22;;
54823;SDS011;40724;53.196;5.980;2023-06-26T14:03:05;7.75;;;2.42;;
54823;SDS011;40724;53.196;5.980;2023-06-26T14:05:35;6.47;;;2.30;;
54823;SDS011;40724;53.196;5.980;2023-06-26T14:08:05;5.75;;;2.35;;
54823;SDS011;40724;53.196;5.980;2023-06-26T14:10:31;6.20;;;2.13;;
54823;SDS011;40724;53.196;5.980;2023-06-26T14:13:01;5.45;;;2.50;;
54823;SDS011;40724;53.196;5.980;2023-06-26T14:15:28;7.55;;;2.40;;
54823;SDS011;40724;53.196;5.980;2023-06-26T14:17:54;5.03;;;2.40;;
54823;SDS011;40724;53.196;5.980;2023-06-26T14:20:21;5.50;;;2.17;;
54823;SDS011;40724;53.196;5.980;2023-06-26T14:22:47;6.38;;;2.10;;
54823;SDS011;40724;53.196;5.980;2023-06-26T14:25:14;9.18;;;2.50;;
54823;SDS011;40724;53.196;5.980;2023-06-26T14:27:40;5.35;;;2.25;;
54823;SDS011;40724;53.196;5.980;2023-06-26T14:30:07;4.00;;;1.92;;
54823;SDS011;40724;53.196;5.980;2023-06-26T14:32:33;7.07;;;1.98;;
54823;SDS011;40724;53.196;5.980;2023-06-26T14:35:00;8.85;;;2.28;;
54823;SDS011;40724;53.196;5.980;2023-06-26T14:37:29;4.38;;;2.60;;
54823;SDS011;40724;53.196;5.980;2023-06-26T14:39:56;3.28;;;1.67;;
54823;SDS011;40724;53.196;5.980;2023-06-26T14:42:22;6.40;;;2.45;;
54823;SDS011;40724;53.196;5.980;2023-06-26T14:44:48;5.05;;;2.33;;
54823;SDS011;40724;53.196;5.980;2023-06-26T14:47:18;7.70;;;2.67;;